Time;durP1;ratioP1;P1;durP2;ratioP2;P2;SDS_P1;SDS_P2;PMS_P1;PMS_P2;Temp;Humidity;BMP_temperature;BMP_pressure;BME280_temperature;BME280_humidity;BME280_pressure;Samples;Min_cycle;Max_cycle;Signal;HPM_P1;HPM_P2
2023/07/07 00:00:04;;;;;;;0.00;0.00;;;;;;;23.84;57.75;100023.13;4404251;32;34034;-85
2023/07/07 00:02:33;;;;;;;1.00;0.70;;;;;;;23.66;58.49;100025.72;4415118;32;34023;-86
2023/07/07 00:05:01;;;;;;;1.20;1.05;;;;;;;23.72;58.35;100031.38;4420362;32;33135;-86
2023/07/07 00:07:29;;;;;;;0.43;0.40;;;;;;;23.70;58.33;100038.78;4417186;32;32674;-86
2023/07/07 00:09:57;;;;;;;0.30;0.30;;;;;;;23.66;58.32;100025.72;4425842;32;33836;-86
2023/07/07 00:12:25;;;;;;;0.28;0.28;;;;;;;23.71;58.01;100032.38;4404348;32;34860;-86
2023/07/07 00:14:52;;;;;;;0.35;0.32;;;;;;;24.00;56.91;100028.75;4403045;32;32422;-85
2023/07/07 00:17:20;;;;;;;1.95;0.68;;;;;;;23.87;57.64;100028.22;4402195;32;32723;-86
2023/07/07 00:19:48;;;;;;;1.23;1.08;;;;;;;23.86;57.80;100031.91;4410302;32;33796;-84
2023/07/07 00:22:15;;;;;;;2.28;1.02;;;;;;;23.66;58.73;100029.28;4414280;32;32341;-85
2023/07/07 00:24:43;;;;;;;0.43;0.43;;;;;;;23.78;58.50;100035.31;4427938;32;33032;-85
2023/07/07 00:27:10;;;;;;;0.80;0.62;;;;;;;23.66;58.93;100036.50;4430597;32;34607;-86
2023/07/07 00:29:38;;;;;;;0.60;0.50;;;;;;;23.61;59.21;100026.13;4403479;32;32721;-86
2023/07/07 00:32:06;;;;;;;0.52;0.52;;;;;;;23.62;59.06;100029.66;4408377;32;32000;-86
2023/07/07 00:34:33;;;;;;;0.65;0.65;;;;;;;23.57;59.28;100026.56;4412871;32;33367;-87
2023/07/07 00:37:01;;;;;;;0.43;0.43;;;;;;;23.64;59.01;100039.34;4393090;32;32983;-86
2023/07/07 00:39:28;;;;;;;0.05;0.05;;;;;;;23.68;58.85;100037.19;4404476;32;33493;-86
2023/07/07 00:41:56;;;;;;;0.75;0.73;;;;;;;23.73;58.59;100035.75;4403379;32;32095;-86
2023/07/07 00:44:30;;;;;;;0.73;0.70;;;;;;;23.70;58.48;100032.53;4415792;32;32681;-86
2023/07/07 00:46:58;;;;;;;0.30;0.30;;;;;;;23.76;58.05;100035.47;4416193;32;32416;-87
2023/07/07 00:49:27;;;;;;;0.22;0.22;;;;;;;23.71;58.43;100035.06;4404455;32;36175;-87
2023/07/07 00:52:00;;;;;;;0.37;0.30;;;;;;;23.63;58.69;100037.59;4402351;32;32271;-87
2023/07/07 00:54:31;;;;;;;1.85;0.82;;;;;;;23.58;58.73;100033.66;4424128;32;32439;-86
2023/07/07 00:56:59;;;;;;;0.57;0.57;;;;;;;23.39;59.15;100034.53;4415257;32;33315;-87
2023/07/07 00:59:35;;;;;;;0.00;0.00;;;;;;;23.44;58.99;100038.47;4401393;32;33626;-86
2023/07/07 01:02:09;;;;;;;0.93;0.60;;;;;;;23.49;59.21;100033.50;4428898;32;33671;-87
2023/07/07 01:04:38;;;;;;;0.57;0.55;;;;;;;23.43;59.37;100035.94;4416414;32;33131;-87
2023/07/07 01:07:13;;;;;;;0.73;0.37;;;;;;;23.43;59.24;100036.78;4396493;32;34495;-87
2023/07/07 01:09:41;;;;;;;0.43;0.43;;;;;;;23.48;59.30;100044.44;4418479;32;34064;-87
2023/07/07 01:12:11;;;;;;;4.00;0.90;;;;;;;23.41;59.53;100040.63;4422992;32;35202;-87
2023/07/07 01:14:39;;;;;;;1.65;1.23;;;;;;;23.38;59.55;100051.69;4404843;32;33396;-86
2023/07/07 01:17:19;;;;;;;0.37;0.37;;;;;;;23.41;59.54;100046.87;4410828;32;32930;-87
2023/07/07 01:20:12;;;;;;;0.60;0.60;;;;;;;23.44;59.52;100048.41;4430482;32;34695;-86
2023/07/07 01:22:59;;;;;;;0.45;0.45;;;;;;;23.33;59.70;100045.88;4390723;32;33160;-87
2023/07/07 01:25:36;;;;;;;0.73;0.47;;;;;;;23.40;59.32;100045.16;4420369;32;34060;-86
2023/07/07 01:28:44;;;;;;;1.37;0.95;;;;;;;23.34;59.64;100050.28;4403440;32;32832;-87
2023/07/07 01:31:33;;;;;;;0.30;0.20;;;;;;;23.40;59.49;100044.31;4414936;32;33663;-87
2023/07/07 01:34:02;;;;;;;0.50;0.50;;;;;;;23.48;59.26;100044.44;4406549;32;33251;-87
2023/07/07 01:36:30;;;;;;;0.52;0.30;;;;;;;23.36;59.48;100045.56;4414953;32;34052;-87
2023/07/07 01:38:58;;;;;;;1.15;0.73;;;;;;;23.31;59.49;100043.34;4413760;32;33721;-86
2023/07/07 01:41:29;;;;;;;0.47;0.47;;;;;;;23.35;59.36;100050.13;4428543;32;34436;-85
2023/07/07 01:44:24;;;;;;;;;;;;;;;23.29;59.58;100050.69;4407257;32;32934;-85
2023/07/07 01:47:00;;;;;;;0.45;0.43;;;;;;;23.35;59.35;100046.56;4428857;32;33199;-85
2023/07/07 01:49:37;;;;;;;0.47;0.45;;;;;;;23.33;59.23;100052.12;4403820;32;33510;-84
2023/07/07 01:52:14;;;;;;;0.62;0.40;;;;;;;23.21;59.41;100047.84;4431563;32;33598;-84
2023/07/07 01:54:45;;;;;;;0.82;0.82;;;;;;;23.16;59.74;100048.28;4431999;32;33590;-84
2023/07/07 01:57:14;;;;;;;0.68;0.68;;;;;;;23.17;59.69;100046.47;4415922;32;34093;-84
2023/07/07 01:59:42;;;;;;;0.55;0.43;;;;;;;23.24;58.98;100048.44;4417806;32;32432;-84
2023/07/07 02:02:10;;;;;;;0.40;0.30;;;;;;;23.11;59.17;100050.53;4407200;32;33384;-83
2023/07/07 02:04:38;;;;;;;0.43;0.40;;;;;;;22.96;59.98;100060.03;4401994;32;32466;-84
2023/07/07 02:07:05;;;;;;;0.65;0.65;;;;;;;22.89;60.18;100053.53;4416491;32;34071;-83
2023/07/07 02:09:33;;;;;;;0.57;0.52;;;;;;;22.97;59.66;100051.81;4429046;32;33618;-83
2023/07/07 02:12:01;;;;;;;1.75;0.50;;;;;;;23.02;59.42;100046.00;4413238;32;33794;-83
2023/07/07 02:14:29;;;;;;;0.00;0.00;;;;;;;22.82;59.92;100053.19;4416134;32;34174;-83
2023/07/07 02:16:56;;;;;;;0.93;0.93;;;;;;;22.89;59.90;100054.37;4430589;32;32929;-86
2023/07/07 02:19:24;;;;;;;0.62;0.55;;;;;;;22.90;59.65;100048.00;4425464;32;32442;-86
2023/07/07 02:21:52;;;;;;;1.45;1.35;;;;;;;22.84;59.89;100042.28;4405774;32;32585;-86
2023/07/07 02:24:20;;;;;;;2.83;0.90;;;;;;;22.92;59.64;100050.53;4429218;32;33504;-86
2023/07/07 02:26:50;;;;;;;0.60;0.60;;;;;;;22.84;59.96;100045.84;4417535;32;33818;-86
2023/07/07 02:29:17;;;;;;;0.73;0.73;;;;;;;23.02;59.26;100046.00;4401857;32;33599;-86
2023/07/07 02:31:45;;;;;;;0.65;0.37;;;;;;;22.93;59.50;100049.53;4418125;32;34862;-85
2023/07/07 02:34:13;;;;;;;1.20;0.20;;;;;;;22.84;59.80;100045.84;4425632;32;34513;-86
2023/07/07 02:36:40;;;;;;;0.22;0.22;;;;;;;22.71;60.32;100048.78;4430121;32;34078;-86
2023/07/07 02:39:08;;;;;;;0.32;0.32;;;;;;;22.86;59.73;100048.38;4402455;32;35206;-86
2023/07/07 02:41:37;;;;;;;0.75;0.57;;;;;;;22.79;60.02;100055.28;4406361;32;33226;-86
2023/07/07 02:44:05;;;;;;;0.25;0.22;;;;;;;22.90;59.42;100048.00;4432106;32;34656;-86
2023/07/07 02:46:32;;;;;;;1.42;1.27;;;;;;;22.91;59.37;100049.69;4428206;32;34187;-85
2023/07/07 02:49:00;;;;;;;0.55;0.47;;;;;;;22.80;59.82;100046.25;4401245;32;34357;-85
2023/07/07 02:51:28;;;;;;;0.20;0.20;;;;;;;22.73;60.02;100054.88;4403928;32;32722;-85
2023/07/07 02:53:56;;;;;;;0.32;0.32;;;;;;;22.66;60.49;100056.44;4396209;32;32637;-86
2023/07/07 02:56:24;;;;;;;10.75;0.70;;;;;;;22.63;60.46;100059.38;4414213;32;33310;-86
2023/07/07 02:58:54;;;;;;;1.33;1.08;;;;;;;22.75;59.91;100063.66;4404819;32;32143;-86
2023/07/07 03:01:23;;;;;;;0.30;0.30;;;;;;;22.79;59.82;100063.38;4416517;32;32379;-85
2023/07/07 03:03:52;;;;;;;1.02;1.00;;;;;;;22.73;59.93;100057.56;4407724;32;32113;-85
2023/07/07 03:06:22;;;;;;;0.40;0.40;;;;;;;22.74;59.69;100072.75;4417466;32;32871;-85
2023/07/07 03:08:51;;;;;;;0.25;0.25;;;;;;;22.70;59.82;100068.63;4415773;32;33586;-85
2023/07/07 03:11:20;;;;;;;1.55;0.68;;;;;;;22.74;59.59;100067.34;4400483;32;33273;-85
2023/07/07 03:13:49;;;;;;;0.47;0.47;;;;;;;22.78;59.45;100077.81;4414159;32;33865;-86
2023/07/07 03:16:22;;;;;;;0.10;0.10;;;;;;;22.64;59.88;100074.53;4415221;32;31879;-87
2023/07/07 03:18:56;;;;;;;0.60;0.60;;;;;;;22.60;60.08;100075.81;4408832;32;32963;-86
2023/07/07 03:21:25;;;;;;;0.80;0.65;;;;;;;22.53;60.28;100077.34;4415176;32;34082;-86
2023/07/07 03:23:54;;;;;;;6.97;1.35;;;;;;;22.42;60.62;100089.06;4404256;32;33771;-86
2023/07/07 03:26:24;;;;;;;1.70;1.60;;;;;;;22.49;60.47;100086.66;4414171;32;33307;-87
2023/07/07 03:28:53;;;;;;;0.50;0.45;;;;;;;22.58;60.29;100088.53;4375614;32;32563;-86
2023/07/07 03:31:27;;;;;;;0.30;0.30;;;;;;;22.50;60.55;100091.06;4417905;32;34335;-85
2023/07/07 03:33:58;;;;;;;1.58;0.55;;;;;;;22.51;60.56;100083.88;4405353;32;33588;-86
2023/07/07 03:36:29;;;;;;;0.43;0.43;;;;;;;22.56;60.20;100090.53;4415399;32;33654;-85
2023/07/07 03:38:57;;;;;;;0.98;0.70;;;;;;;22.42;60.54;100093.59;4416108;32;33347;-85
2023/07/07 03:41:27;;;;;;;0.20;0.20;;;;;;;22.42;60.31;100098.97;4404478;32;33161;-83
2023/07/07 03:43:55;;;;;;;5.90;0.93;;;;;;;22.45;60.28;100098.69;4406454;32;33861;-84
2023/07/07 03:46:26;;;;;;;1.55;0.70;;;;;;;22.33;60.80;100102.47;4414407;32;34100;-83
2023/07/07 03:48:55;;;;;;;0.30;0.30;;;;;;;22.45;60.21;100115.69;4402632;32;31903;-83
2023/07/07 03:51:24;;;;;;;0.28;0.28;;;;;;;22.42;60.34;100113.28;4407190;32;32522;-84
2023/07/07 03:53:52;;;;;;;2.47;1.48;;;;;;;22.40;60.49;100114.38;4417308;32;33210;-84
2023/07/07 03:56:20;;;;;;;0.40;0.40;;;;;;;22.38;60.09;100116.38;4419449;32;32527;-84
2023/07/07 03:58:48;;;;;;;0.80;0.73;;;;;;;22.32;58.94;100112.41;4416317;32;32347;-84
2023/07/07 04:01:16;;;;;;;1.10;0.93;;;;;;;22.34;58.57;100118.47;4428497;32;33676;-84
2023/07/07 04:03:46;;;;;;;0.28;0.28;;;;;;;22.44;58.03;100121.22;4414070;32;33690;-84
2023/07/07 04:06:15;;;;;;;0.20;0.20;;;;;;;22.60;57.46;100118.00;4392940;32;32257;-86
2023/07/07 04:08:44;;;;;;;0.57;0.57;;;;;;;22.51;57.77;100122.37;4390766;32;33489;-85
2023/07/07 04:11:15;;;;;;;2.87;0.68;;;;;;;22.40;58.22;100117.09;4390548;32;36408;-83
2023/07/07 04:13:44;;;;;;;0.47;0.47;;;;;;;22.31;58.94;100125.97;4404330;32;33508;-83
2023/07/07 04:16:15;;;;;;;;;;;;;;;22.29;58.79;100114.50;4404406;32;34026;-83
2023/07/07 04:18:44;;;;;;;1.02;0.60;;;;;;;22.27;58.49;100133.47;4427729;32;33826;-84
2023/07/07 04:21:18;;;;;;;0.95;0.95;;;;;;;22.34;58.19;100128.37;4415373;32;33642;-84
2023/07/07 04:23:50;;;;;;;0.57;0.57;;;;;;;22.57;56.96;100124.53;4389406;32;32300;-83
2023/07/07 04:26:19;;;;;;;0.65;0.65;;;;;;;22.62;56.59;100135.72;4391847;32;32007;-84
2023/07/07 04:28:51;;;;;;;2.10;1.30;;;;;;;22.80;56.80;100141.31;4403190;32;33429;-84
2023/07/07 04:31:23;;;;;;;0.43;0.43;;;;;;;22.66;57.54;100139.88;4414972;32;34073;-84
2023/07/07 04:33:52;;;;;;;0.88;0.88;;;;;;;22.66;57.40;100150.62;4431874;32;34193;-85
2023/07/07 04:36:23;;;;;;;0.47;0.47;;;;;;;22.62;57.75;100143.81;4412471;32;33255;-84
2023/07/07 04:38:50;;;;;;;2.03;1.33;;;;;;;22.67;57.36;100146.94;4416056;32;33862;-85
2023/07/07 04:41:23;;;;;;;0.75;0.62;;;;;;;22.73;57.26;100151.78;4413450;32;32729;-84
2023/07/07 04:43:56;;;;;;;0.75;0.75;;;;;;;22.81;57.30;100152.94;4418215;32;32854;-85
2023/07/07 04:46:30;;;;;;;0.70;0.68;;;;;;;22.99;56.60;100151.34;4410848;32;32411;-85
2023/07/07 04:48:59;;;;;;;5.78;1.12;;;;;;;23.04;55.79;100154.47;4399010;32;33732;-84
2023/07/07 04:51:27;;;;;;;2.00;0.60;;;;;;;23.01;55.97;100149.34;4416018;32;33036;-85
2023/07/07 04:53:54;;;;;;;0.35;0.35;;;;;;;22.99;55.12;100151.34;4420724;32;33846;-84
2023/07/07 04:56:22;;;;;;;0.95;0.73;;;;;;;23.04;55.40;100153.63;4422125;32;33453;-83
2023/07/07 04:58:53;;;;;;;0.98;0.70;;;;;;;22.93;55.77;100151.88;4415382;32;33881;-84
2023/07/07 05:01:23;;;;;;;1.42;0.80;;;;;;;23.14;55.66;100154.47;4406506;32;32684;-83
2023/07/07 05:03:58;;;;;;;11.55;0.60;;;;;;;23.48;54.40;100142.31;4408500;32;34843;-84
2023/07/07 05:06:28;;;;;;;0.60;0.47;;;;;;;23.37;54.66;100155.09;4415645;32;32748;-84
2023/07/07 05:08:58;;;;;;;1.85;0.65;;;;;;;23.09;55.77;100149.50;4429380;32;34485;-84
2023/07/07 05:11:28;;;;;;;1.50;0.88;;;;;;;22.94;55.58;100150.91;4399269;32;33147;-84
2023/07/07 05:13:57;;;;;;;0.10;0.10;;;;;;;23.11;55.48;100149.34;4417621;32;32529;-84
2023/07/07 05:16:30;;;;;;;0.28;0.15;;;;;;;23.13;55.73;100152.78;4404863;32;32241;-83
2023/07/07 05:18:58;;;;;;;2.40;1.45;;;;;;;23.11;55.87;100155.59;4415742;32;33804;-83
2023/07/07 05:21:25;;;;;;;0.65;0.65;;;;;;;23.39;54.21;100163.88;4431320;32;33945;-84
2023/07/07 05:23:54;;;;;;;0.28;0.28;;;;;;;23.42;54.01;100158.22;4418889;32;32202;-83
2023/07/07 05:26:27;;;;;;;0.37;0.30;;;;;;;23.68;53.36;100166.59;4417137;32;33639;-83
2023/07/07 05:29:03;;;;;;;1.10;0.60;;;;;;;23.73;53.23;100167.88;4428071;32;33485;-84
2023/07/07 05:31:32;;;;;;;0.62;0.50;;;;;;;23.69;53.09;100168.31;4428531;32;34175;-83
2023/07/07 05:33:59;;;;;;;1.08;0.85;;;;;;;23.48;53.35;100165.72;4402275;32;32286;-83
2023/07/07 05:36:27;;;;;;;0.82;0.77;;;;;;;23.35;54.23;100162.44;4416274;32;32063;-84
2023/07/07 05:38:55;;;;;;;0.35;0.32;;;;;;;23.38;54.77;100178.34;4406119;32;32534;-83
2023/07/07 05:41:22;;;;;;;0.90;0.80;;;;;;;23.46;54.96;100171.25;4410764;32;34023;-84
2023/07/07 05:43:50;;;;;;;0.15;0.15;;;;;;;23.54;54.69;100175.94;4420167;32;32439;-84
2023/07/07 05:46:18;;;;;;;0.73;0.73;;;;;;;23.65;54.15;100172.31;4401739;32;32416;-83
2023/07/07 05:48:46;;;;;;;1.05;0.65;;;;;;;23.84;53.31;100169.59;4406981;32;34219;-84
2023/07/07 05:51:17;;;;;;;1.08;1.02;;;;;;;23.76;54.05;100166.75;4417557;32;34720;-84
2023/07/07 05:53:45;;;;;;;0.47;0.47;;;;;;;23.77;53.25;100174.69;4403537;32;35335;-83
2023/07/07 05:56:19;;;;;;;0.55;0.40;;;;;;;23.87;53.00;100168.44;4395671;32;32908;-84
2023/07/07 05:58:47;;;;;;;0.70;0.70;;;;;;;23.94;53.19;100175.81;4413926;32;34286;-83
2023/07/07 06:01:15;;;;;;;0.95;0.32;;;;;;;23.92;53.00;100176.94;4376999;32;32586;-84
2023/07/07 06:03:43;;;;;;;0.73;0.35;;;;;;;24.05;50.71;100177.50;4405600;32;33772;-84
2023/07/07 06:06:11;;;;;;;2.55;1.65;;;;;;;24.37;49.91;100179.03;4403534;32;33437;-84
2023/07/07 06:08:40;;;;;;;0.62;0.62;;;;;;;24.74;49.96;100184.47;4416227;32;34775;-83
2023/07/07 06:11:08;;;;;;;0.50;0.50;;;;;;;24.70;47.67;100192.00;4392039;32;32659;-84
2023/07/07 06:13:35;;;;;;;0.70;0.70;;;;;;;24.69;47.39;100187.59;4388191;32;32321;-84
2023/07/07 06:16:04;;;;;;;0.85;0.70;;;;;;;25.16;47.32;100195.66;4400289;32;33447;-84
2023/07/07 06:18:32;;;;;;;1.08;0.65;;;;;;;25.01;47.97;100197.09;4400729;32;34016;-84
2023/07/07 06:21:00;;;;;;;1.02;0.52;;;;;;;25.02;46.37;100193.44;4403328;32;34394;-84
2023/07/07 06:23:30;;;;;;;0.28;0.28;;;;;;;25.13;44.34;100204.03;4406475;32;32823;-84
2023/07/07 06:25:58;;;;;;;0.30;0.30;;;;;;;25.21;43.92;100198.75;4415719;32;34026;-84
2023/07/07 06:28:25;;;;;;;1.52;1.30;;;;;;;24.86;45.40;100204.84;4399293;32;33855;-84
2023/07/07 06:30:53;;;;;;;0.95;0.73;;;;;;;25.02;45.78;100205.06;4400145;32;32729;-84
2023/07/07 06:33:21;;;;;;;0.73;0.52;;;;;;;25.46;44.35;100201.72;4388570;32;32155;-84
2023/07/07 06:35:49;;;;;;;0.70;0.60;;;;;;;25.68;42.74;100198.53;4413934;32;32036;-84
2023/07/07 06:38:17;;;;;;;0.30;0.30;;;;;;;25.82;42.00;100207.16;4415853;32;33332;-84
2023/07/07 06:40:48;;;;;;;1.05;0.55;;;;;;;25.83;41.32;100206.13;4409588;32;32573;-84
2023/07/07 06:43:18;;;;;;;1.90;1.25;;;;;;;25.88;42.52;100201.97;4400731;32;33950;-84
2023/07/07 06:45:55;;;;;;;1.08;0.85;;;;;;;25.96;42.92;100214.72;4407553;32;34159;-84
2023/07/07 06:48:23;;;;;;;0.32;0.32;;;;;;;25.74;42.78;100206.06;4403407;32;32668;-84
2023/07/07 06:50:51;;;;;;;1.05;0.75;;;;;;;25.57;44.17;100208.75;4400508;32;33332;-84
2023/07/07 06:53:18;;;;;;;0.70;0.37;;;;;;;26.04;43.32;100212.94;4403795;32;33114;-84
2023/07/07 06:55:46;;;;;;;2.62;0.65;;;;;;;25.80;43.83;100218.12;4409276;32;34156;-84
2023/07/07 06:58:14;;;;;;;1.27;1.08;;;;;;;25.78;42.83;100218.31;4408464;32;34349;-84
2023/07/07 07:00:42;;;;;;;0.55;0.55;;;;;;;26.24;42.81;100208.16;4423164;32;33917;-84
2023/07/07 07:03:10;;;;;;;1.08;0.95;;;;;;;26.50;41.63;100210.09;4397682;32;33574;-84
2023/07/07 07:05:39;;;;;;;2.15;1.00;;;;;;;26.89;41.06;100206.91;4417687;32;32463;-84
2023/07/07 07:08:07;;;;;;;0.40;0.40;;;;;;;27.29;39.01;100208.94;4409154;32;33543;-84
2023/07/07 07:10:34;;;;;;;0.30;0.30;;;;;;;27.04;39.17;100211.53;4403465;32;34708;-84
2023/07/07 07:13:03;;;;;;;0.60;0.40;;;;;;;26.97;38.98;100217.78;4410111;32;34655;-84
2023/07/07 07:15:31;;;;;;;0.30;0.30;;;;;;;26.97;39.20;100213.22;4403428;32;31750;-84
2023/07/07 07:17:59;;;;;;;0.43;0.32;;;;;;;27.36;39.97;100214.56;4411411;32;33559;-84
2023/07/07 07:20:27;;;;;;;1.02;0.40;;;;;;;27.33;39.85;100215.75;4410177;32;33784;-85
2023/07/07 07:22:54;;;;;;;1.17;0.73;;;;;;;27.13;39.15;100215.16;4411670;32;33913;-84
2023/07/07 07:25:22;;;;;;;0.75;0.70;;;;;;;27.23;38.56;100221.31;4405286;32;33405;-84
2023/07/07 07:27:50;;;;;;;0.55;0.55;;;;;;;27.01;40.91;100221.84;4409759;32;33968;-84
2023/07/07 07:30:17;;;;;;;1.10;0.32;;;;;;;27.25;40.04;100223.84;4404670;32;34425;-84
2023/07/07 07:32:45;;;;;;;0.55;0.45;;;;;;;26.97;40.37;100231.34;4396614;32;33380;-84
2023/07/07 07:35:14;;;;;;;1.52;0.82;;;;;;;27.21;39.31;100228.75;4396937;32;34243;-84
2023/07/07 07:37:41;;;;;;;0.60;0.60;;;;;;;27.43;40.83;100227.28;4408764;32;33163;-84
2023/07/07 07:40:09;;;;;;;0.95;0.52;;;;;;;27.74;38.21;100229.44;4409483;32;33255;-85
2023/07/07 07:42:37;;;;;;;1.52;0.90;;;;;;;27.49;39.35;100242.06;4409611;32;33501;-84
2023/07/07 07:45:05;;;;;;;0.20;0.20;;;;;;;27.42;39.76;100241.03;4405416;32;34132;-84
2023/07/07 07:47:34;;;;;;;1.85;1.42;;;;;;;27.48;39.40;100240.34;4396514;32;33901;-84
2023/07/07 07:50:03;;;;;;;2.50;0.82;;;;;;;27.59;38.97;100234.63;4408666;32;32642;-84
2023/07/07 07:52:31;;;;;;;2.72;0.45;;;;;;;27.38;39.09;100242.34;4407336;32;32846;-84
2023/07/07 07:54:58;;;;;;;0.80;0.57;;;;;;;27.13;39.53;100236.84;4422790;32;33017;-84
2023/07/07 07:57:26;;;;;;;0.60;0.52;;;;;;;27.25;39.21;100246.41;4409679;32;33162;-84
2023/07/07 07:59:54;;;;;;;0.77;0.77;;;;;;;27.62;38.51;100249.72;4410030;32;34753;-84
2023/07/07 08:02:24;;;;;;;0.73;0.45;;;;;;;27.19;38.13;100252.47;4405424;32;32194;-84
2023/07/07 08:04:51;;;;;;;1.67;0.85;;;;;;;27.54;38.20;100247.84;4419066;32;33343;-84
2023/07/07 08:07:20;;;;;;;3.33;1.10;;;;;;;27.40;37.88;100245.78;4399342;32;32551;-84
2023/07/07 08:09:48;;;;;;;1.90;1.15;;;;;;;27.49;37.38;100247.50;4403076;32;33938;-84
2023/07/07 08:12:15;;;;;;;0.55;0.55;;;;;;;27.39;37.98;100246.75;4409370;32;34260;-84
2023/07/07 08:14:43;;;;;;;1.25;0.70;;;;;;;27.99;39.22;100250.13;4409504;32;32769;-84
2023/07/07 08:17:13;;;;;;;1.65;1.17;;;;;;;28.49;36.95;100241.00;4410305;32;33344;-84
2023/07/07 08:19:42;;;;;;;0.20;0.20;;;;;;;28.29;36.38;100248.59;4409800;32;33620;-84
2023/07/07 08:22:15;;;;;;;2.90;0.75;;;;;;;28.23;36.87;100243.87;4399509;32;32289;-84
2023/07/07 08:24:55;;;;;;;0.28;0.28;;;;;;;28.65;37.08;100247.41;4410422;32;32200;-84
2023/07/07 08:27:24;;;;;;;0.80;0.62;;;;;;;28.49;35.48;100243.72;4411548;32;35075;-84
2023/07/07 08:29:55;;;;;;;0.50;0.50;;;;;;;28.96;36.08;100248.41;4403146;32;33944;-84
2023/07/07 08:32:23;;;;;;;1.27;0.93;;;;;;;29.15;35.92;100249.84;4410189;32;34164;-84
2023/07/07 08:34:52;;;;;;;3.00;1.00;;;;;;;29.31;35.56;100252.50;4396606;32;33401;-84
2023/07/07 08:37:25;;;;;;;1.20;0.95;;;;;;;28.96;35.59;100252.94;4401745;32;32985;-84
2023/07/07 08:39:53;;;;;;;0.55;0.55;;;;;;;29.20;35.47;100250.16;4412735;32;33980;-85
2023/07/07 08:42:29;;;;;;;0.35;0.35;;;;;;;29.62;33.49;100253.53;4423631;32;34159;-84
2023/07/07 08:44:59;;;;;;;0.70;0.70;;;;;;;29.74;33.74;100244.78;4412389;32;32676;-84
2023/07/07 08:47:48;;;;;;;0.82;0.82;;;;;;;29.09;35.16;100258.69;4395166;32;33799;-84
2023/07/07 08:50:35;;;;;;;0.45;0.45;;;;;;;29.30;35.53;100256.25;4414485;32;32584;-84
2023/07/07 08:53:18;;;;;;;0.25;0.25;;;;;;;29.28;35.01;100260.16;4422646;32;33838;-84
2023/07/07 08:55:56;;;;;;;4.50;1.42;;;;;;;28.77;34.07;100260.47;4423800;32;33988;-84
2023/07/07 08:58:37;;;;;;;0.52;0.52;;;;;;;28.70;35.63;100261.34;4409555;32;34476;-84
2023/07/07 09:01:54;;;;;;;1.50;1.17;;;;;;;29.17;33.45;100261.37;4409529;32;33141;-84
2023/07/07 09:04:37;;;;;;;1.52;0.70;;;;;;;29.38;34.74;100268.09;4427446;32;33370;-84
2023/07/07 09:07:20;;;;;;;0.65;0.65;;;;;;;29.29;35.00;100270.00;4395928;32;34156;-84
2023/07/07 09:09:53;;;;;;;2.83;2.03;;;;;;;29.53;32.88;100269.03;4427824;32;33027;-84
2023/07/07 09:12:45;;;;;;;0.35;0.35;;;;;;;29.27;34.45;100272.91;4427850;32;34178;-84
2023/07/07 09:15:17;;;;;;;3.50;0.95;;;;;;;29.22;34.54;100272.59;4416897;32;33813;-84
2023/07/07 09:17:49;;;;;;;1.25;0.93;;;;;;;29.43;32.28;100265.69;4392438;32;31785;-84
2023/07/07 09:20:17;;;;;;;;;;;;;;;29.10;34.77;100271.25;4405230;32;32251;-84
2023/07/07 09:22:48;;;;;;;1.80;0.75;;;;;;;29.25;33.21;100269.53;4407701;32;33123;-84
2023/07/07 09:25:42;;;;;;;1.58;1.17;;;;;;;28.86;34.30;100269.44;4394952;32;32356;-84
2023/07/07 09:28:17;;;;;;;0.93;0.80;;;;;;;29.12;33.72;100271.09;4412053;32;32228;-84
2023/07/07 09:30:53;;;;;;;1.12;1.02;;;;;;;29.53;32.69;100269.03;4397205;32;33116;-84
2023/07/07 09:33:21;;;;;;;3.70;1.02;;;;;;;29.01;33.61;100267.75;4405827;32;32716;-84
2023/07/07 09:35:57;;;;;;;0.20;0.20;;;;;;;29.16;32.98;100269.72;4405234;32;34621;-84
2023/07/07 09:38:55;;;;;;;1.30;0.95;;;;;;;29.02;33.15;100269.44;4414699;32;31429;-84
2023/07/07 09:41:54;;;;;;;0.30;0.30;;;;;;;29.28;33.20;100269.16;4405233;32;33652;-84
2023/07/07 09:44:37;;;;;;;0.95;0.70;;;;;;;28.99;34.60;100275.22;4405170;32;32473;-84
2023/07/07 09:47:11;;;;;;;4.00;1.42;;;;;;;29.43;32.16;100269.25;4431741;32;33442;-84
2023/07/07 09:49:57;;;;;;;0.52;0.52;;;;;;;29.20;33.72;100277.37;4418776;32;33957;-84
2023/07/07 09:52:37;;;;;;;1.65;1.45;;;;;;;28.92;33.21;100267.91;4417518;32;33276;-84
2023/07/07 09:55:23;;;;;;;1.17;0.98;;;;;;;29.23;34.28;100271.56;4402381;32;33177;-84
2023/07/07 09:58:05;;;;;;;1.87;0.62;;;;;;;29.38;32.16;100270.81;4408428;32;33187;-84
2023/07/07 10:00:34;;;;;;;0.68;0.65;;;;;;;29.66;32.01;100266.59;4417009;32;33519;-84
2023/07/07 10:03:40;;;;;;;0.77;0.77;;;;;;;29.99;33.04;100263.66;4412510;32;33930;-84
2023/07/07 10:06:31;;;;;;;4.00;1.02;;;;;;;30.22;29.98;100267.25;4432213;32;33674;-84
2023/07/07 10:09:00;;;;;;;1.98;1.35;;;;;;;30.09;30.74;100267.00;4403343;32;32710;-84
2023/07/07 10:11:37;;;;;;;9.10;1.02;;;;;;;29.88;31.20;100270.38;4409714;32;32789;-84
2023/07/07 10:14:12;;;;;;;1.98;1.20;;;;;;;29.78;32.71;100267.06;4419375;32;32704;-85
2023/07/07 10:17:00;;;;;;;2.65;1.52;;;;;;;29.82;30.47;100271.13;4410579;32;34093;-84
2023/07/07 10:19:27;;;;;;;0.95;0.85;;;;;;;30.00;31.46;100268.06;4401350;32;32150;-84
2023/07/07 10:21:55;;;;;;;0.73;0.57;;;;;;;29.95;29.84;100265.06;4415078;32;32064;-84
2023/07/07 10:24:23;;;;;;;0.93;0.70;;;;;;;29.74;30.32;100269.28;4416500;32;33963;-85
2023/07/07 10:26:51;;;;;;;4.65;1.58;;;;;;;29.90;30.43;100272.91;4402917;32;34473;-84
2023/07/07 10:29:22;;;;;;;0.82;0.47;;;;;;;30.49;29.57;100262.28;4417037;32;33929;-84
2023/07/07 10:31:51;;;;;;;0.28;0.28;;;;;;;30.43;29.45;100268.44;4405547;32;33643;-84
2023/07/07 10:34:30;;;;;;;0.90;0.52;;;;;;;30.58;28.52;100261.16;4422803;32;33175;-84
2023/07/07 10:36:58;;;;;;;1.05;1.05;;;;;;;30.70;28.83;100256.94;4389188;32;33131;-84
2023/07/07 10:39:28;;;;;;;6.35;0.52;;;;;;;30.50;27.63;100263.94;4410699;32;33353;-84
2023/07/07 10:41:56;;;;;;;2.53;0.75;;;;;;;30.65;28.64;100256.63;4409114;32;34515;-84
2023/07/07 10:44:24;;;;;;;1.02;0.93;;;;;;;30.99;27.96;100258.84;4422013;32;32371;-84
2023/07/07 10:46:52;;;;;;;2.53;0.90;;;;;;;31.23;27.42;100246.78;4415095;32;32722;-84
2023/07/07 10:49:26;;;;;;;1.33;0.95;;;;;;;30.45;27.88;100245.44;4399068;32;33844;-84
2023/07/07 10:52:03;;;;;;;0.88;0.75;;;;;;;30.84;27.98;100245.22;4414837;32;33721;-84
2023/07/07 10:54:37;;;;;;;0.22;0.20;;;;;;;30.58;27.62;100245.66;4417677;32;33686;-84
2023/07/07 10:57:22;;;;;;;1.30;1.10;;;;;;;30.83;27.30;100243.53;4423138;32;32404;-84
2023/07/07 11:00:31;;;;;;;3.37;1.20;;;;;;;31.14;26.68;100233.44;4414171;32;33850;-85
2023/07/07 11:03:22;;;;;;;1.40;1.27;;;;;;;30.78;26.30;100242.41;4381470;32;32595;-84
2023/07/07 11:05:56;;;;;;;2.45;1.00;;;;;;;30.63;26.29;100239.63;4381523;32;33155;-85
2023/07/07 11:08:31;;;;;;;0.57;0.57;;;;;;;30.54;25.65;100238.88;4415004;32;34006;-84
2023/07/07 11:11:11;;;;;;;0.73;0.73;;;;;;;30.28;28.34;100255.62;4402735;32;33384;-85
2023/07/07 11:13:57;;;;;;;1.05;0.95;;;;;;;30.31;28.24;100249.81;4428904;32;32962;-84
2023/07/07 11:16:38;;;;;;;0.52;0.40;;;;;;;29.97;27.82;100246.69;4426152;32;33492;-84
2023/07/07 11:19:09;;;;;;;0.45;0.45;;;;;;;30.26;28.76;100252.25;4391598;32;32703;-84
2023/07/07 11:21:48;;;;;;;0.73;0.52;;;;;;;30.44;26.63;100251.91;4419191;32;33854;-84
2023/07/07 11:24:34;;;;;;;6.18;1.35;;;;;;;30.57;26.80;100243.94;4428988;32;33532;-84
2023/07/07 11:27:31;;;;;;;1.05;1.00;;;;;;;30.59;27.04;100235.59;4414776;32;33939;-84
2023/07/07 11:30:10;;;;;;;0.73;0.68;;;;;;;30.63;26.08;100238.78;4411586;32;33859;-84
2023/07/07 11:32:56;;;;;;;0.45;0.45;;;;;;;30.97;25.87;100230.09;4415324;32;34116;-84
2023/07/07 11:35:42;;;;;;;0.90;0.77;;;;;;;31.58;25.54;100241.59;4432065;32;33051;-84
2023/07/07 11:38:35;;;;;;;0.65;0.65;;;;;;;31.86;25.72;100231.62;4413127;32;33255;-84
2023/07/07 11:41:23;;;;;;;1.40;0.90;;;;;;;31.94;24.48;100229.78;4424145;32;33546;-85
2023/07/07 11:44:05;;;;;;;1.10;0.57;;;;;;;31.58;24.96;100236.97;4399765;32;33346;-85
2023/07/07 11:47:12;;;;;;;1.37;0.95;;;;;;;30.56;26.20;100241.41;4425229;32;33334;-84
2023/07/07 11:49:58;;;;;;;0.85;0.80;;;;;;;30.44;26.42;100238.28;4405298;32;33460;-84